createdAt,value
2017-07-10T00:00:25.595Z,0
2017-07-10T00:01:05.924Z,0
2017-07-10T00:01:46.370Z,0
2017-07-10T00:02:26.900Z,0
2017-07-10T00:03:07.045Z,0
2017-07-10T00:03:47.378Z,0
2017-07-10T00:04:27.615Z,0
2017-07-10T00:05:07.949Z,0
2017-07-10T00:05:48.382Z,0
2017-07-10T00:06:31.399Z,0
2017-07-10T00:07:12.248Z,0
2017-07-10T00:07:52.382Z,0
2017-07-10T00:08:32.508Z,0
2017-07-10T00:09:12.650Z,0
2017-07-10T00:09:52.586Z,0
2017-07-10T00:10:32.815Z,0
2017-07-10T00:11:12.852Z,0
2017-07-10T00:11:53.383Z,0
2017-07-10T00:12:33.723Z,0
2017-07-10T00:13:13.857Z,0
2017-07-10T00:13:54.303Z,0
2017-07-10T00:14:34.952Z,0
2017-07-10T00:15:15.279Z,0
2017-07-10T00:15:55.808Z,0
2017-07-10T00:16:36.355Z,0
2017-07-10T00:17:16.599Z,0
2017-07-10T00:17:57.222Z,0
2017-07-10T00:18:37.463Z,0
2017-07-10T00:19:17.697Z,0
2017-07-10T00:19:57.842Z,0
2017-07-10T00:20:38.076Z,0
2017-07-10T00:21:18.109Z,0
2017-07-10T00:21:58.543Z,0
2017-07-10T00:22:38.971Z,0
2017-07-10T00:23:18.907Z,0
2017-07-10T00:23:59.044Z,0
2017-07-10T00:24:39.477Z,0
2017-07-10T00:25:19.315Z,0
2017-07-10T00:25:59.744Z,0
2017-07-10T00:26:40.192Z,0
2017-07-10T00:27:20.523Z,0
2017-07-10T00:28:00.676Z,0
2017-07-10T00:28:40.805Z,0
2017-07-10T00:29:21.043Z,0
2017-07-10T00:30:01.375Z,0
2017-07-10T00:30:41.623Z,0
2017-07-10T00:31:21.850Z,0
2017-07-10T00:32:02.184Z,0
2017-07-10T00:32:42.748Z,0
2017-07-10T00:33:23.017Z,0
2017-07-10T00:34:03.357Z,0
2017-07-10T00:34:43.302Z,0
2017-07-10T00:35:23.837Z,0
2017-07-10T00:36:04.070Z,0
2017-07-10T00:36:43.939Z,0
2017-07-10T00:37:23.777Z,0
2017-07-10T00:38:03.916Z,0
2017-07-10T00:38:44.155Z,0
2017-07-10T00:39:24.091Z,0
2017-07-10T00:40:04.520Z,0
2017-07-10T00:40:44.865Z,0
2017-07-10T00:41:25.092Z,0
2017-07-10T00:42:05.336Z,0
2017-07-10T00:42:45.687Z,0
2017-07-10T00:43:26.324Z,0
2017-07-10T00:44:07.162Z,0
2017-07-10T00:44:47.400Z,0
2017-07-10T00:45:27.939Z,0
2017-07-10T00:46:08.469Z,0
2017-07-10T00:46:48.810Z,0
2017-07-10T00:47:28.936Z,0
2017-07-10T00:48:09.471Z,0
2017-07-10T00:48:49.808Z,0
2017-07-10T00:49:30.036Z,0
2017-07-10T00:50:10.180Z,0
2017-07-10T00:50:50.310Z,0
2017-07-10T00:51:30.650Z,0
2017-07-10T00:52:10.880Z,0
2017-07-10T00:52:51.114Z,0
2017-07-10T00:53:31.556Z,0
2017-07-10T00:54:11.493Z,0
2017-07-10T00:54:51.925Z,0
2017-07-10T00:55:32.159Z,0
2017-07-10T00:56:12.099Z,0
2017-07-10T00:56:52.625Z,0
2017-07-10T00:57:32.955Z,0
2017-07-10T00:58:13.492Z,0
2017-07-10T00:58:53.927Z,0
2017-07-10T00:59:34.464Z,0
2017-07-10T01:00:14.691Z,0
2017-07-10T01:00:54.731Z,0
2017-07-10T01:01:34.765Z,0
2017-07-10T01:02:15.199Z,0
2017-07-10T01:02:55.538Z,0
2017-07-10T01:03:36.063Z,0
2017-07-10T01:04:16.399Z,0
2017-07-10T01:04:57.029Z,0
2017-07-10T01:05:37.274Z,0
2017-07-10T01:06:17.821Z,0
2017-07-10T01:06:58.646Z,0
2017-07-10T01:07:39.079Z,0
2017-07-10T01:08:19.210Z,0
2017-07-10T01:08:59.544Z,0
2017-07-10T01:09:39.781Z,0
2017-07-10T01:10:19.831Z,0
2017-07-10T01:11:00.477Z,0
2017-07-10T01:11:41.012Z,0
2017-07-10T01:12:21.146Z,0
2017-07-10T01:13:01.981Z,0
2017-07-10T01:13:42.622Z,0
2017-07-10T01:14:23.181Z,0
2017-07-10T01:15:03.608Z,0
2017-07-10T01:15:43.647Z,0
2017-07-10T01:16:23.890Z,0
2017-07-10T01:17:04.324Z,0
2017-07-10T01:17:44.568Z,0
2017-07-10T01:18:24.610Z,0
2017-07-10T01:19:05.033Z,0
2017-07-10T01:19:45.272Z,0
2017-07-10T01:20:25.509Z,0
2017-07-10T01:21:05.549Z,0
2017-07-10T01:21:46.095Z,0
2017-07-10T01:22:26.622Z,0
2017-07-10T01:23:07.259Z,0
2017-07-10T01:23:47.395Z,0
2017-07-10T01:24:27.434Z,0
2017-07-10T01:25:07.361Z,0
2017-07-10T01:25:47.798Z,0
2017-07-10T01:26:27.936Z,0
2017-07-10T01:27:08.485Z,0
2017-07-10T01:27:48.822Z,0
2017-07-10T01:28:28.954Z,0
2017-07-10T01:29:09.591Z,0
2017-07-10T01:29:49.325Z,0
2017-07-10T01:30:29.558Z,0
2017-07-10T01:31:09.991Z,0
2017-07-10T01:31:50.224Z,0
2017-07-10T01:32:30.663Z,0
2017-07-10T01:33:11.194Z,0
2017-07-10T01:33:51.426Z,0
2017-07-10T01:34:31.965Z,0
2017-07-10T01:35:12.498Z,0
2017-07-10T01:35:52.938Z,0
2017-07-10T01:36:33.388Z,0
2017-07-10T01:37:13.334Z,0
2017-07-10T01:37:53.658Z,0
2017-07-10T01:38:33.797Z,0
2017-07-10T01:39:14.234Z,0
2017-07-10T01:39:54.666Z,0
2017-07-10T01:40:35.004Z,0
2017-07-10T01:41:15.432Z,0
2017-07-10T01:41:55.871Z,0
2017-07-10T01:42:36.201Z,0
2017-07-10T01:43:16.533Z,0
2017-07-10T01:43:56.865Z,0
2017-07-10T01:44:37.193Z,0
2017-07-10T01:45:17.736Z,0
2017-07-10T01:45:57.863Z,0
2017-07-10T01:46:38.498Z,0
2017-07-10T01:47:18.736Z,0
2017-07-10T01:47:58.767Z,0
2017-07-10T01:48:39.199Z,0
2017-07-10T01:49:19.537Z,0
2017-07-10T01:49:59.580Z,0
2017-07-10T01:50:39.905Z,0
2017-07-10T01:51:20.247Z,0
2017-07-10T01:52:00.879Z,0
2017-07-10T01:52:41.109Z,0
2017-07-10T01:53:21.343Z,0
2017-07-10T01:54:01.473Z,0
2017-07-10T01:54:41.906Z,0
2017-07-10T01:55:22.145Z,0
2017-07-10T01:56:02.390Z,0
2017-07-10T01:56:43.143Z,0
2017-07-10T01:57:23.576Z,0
2017-07-10T01:58:04.102Z,0
2017-07-10T01:58:45.143Z,0
2017-07-10T01:59:25.289Z,0
2017-07-10T02:00:05.530Z,0
2017-07-10T02:00:45.677Z,0
2017-07-10T02:01:25.910Z,0
2017-07-10T02:02:05.971Z,0
2017-07-10T02:02:46.300Z,0
2017-07-10T02:03:26.932Z,0
2017-07-10T02:04:07.271Z,0
2017-07-10T02:04:47.402Z,0
2017-07-10T02:05:27.737Z,0
2017-07-10T02:06:08.072Z,0
2017-07-10T02:06:48.707Z,0
2017-07-10T02:07:28.937Z,0
2017-07-10T02:08:09.173Z,0
2017-07-10T02:08:49.534Z,0
2017-07-10T02:09:30.063Z,0
2017-07-10T02:10:10.697Z,0
2017-07-10T02:10:51.239Z,0
2017-07-10T02:11:31.775Z,0
2017-07-10T02:12:12.119Z,0
2017-07-10T02:12:52.356Z,0
2017-07-10T02:13:32.500Z,0
2017-07-10T02:14:13.121Z,0
2017-07-10T02:14:53.562Z,0
2017-07-10T02:15:34.087Z,0
2017-07-10T02:16:14.521Z,0
2017-07-10T02:16:54.865Z,0
2017-07-10T02:17:35.199Z,0
2017-07-10T02:18:15.636Z,0
2017-07-10T02:18:56.264Z,0
2017-07-10T02:19:36.699Z,0
2017-07-10T02:20:17.033Z,0
2017-07-10T02:20:57.264Z,0
2017-07-10T02:21:37.498Z,0
2017-07-10T02:22:17.442Z,0
2017-07-10T02:22:57.771Z,0
2017-07-10T02:23:38.308Z,0
2017-07-10T02:24:18.453Z,0
2017-07-10T02:24:58.883Z,0
2017-07-10T02:25:39.314Z,0
2017-07-10T02:26:19.542Z,0
2017-07-10T02:26:59.280Z,0
2017-07-10T02:27:39.825Z,0
2017-07-10T02:28:20.149Z,0
2017-07-10T02:29:00.393Z,0
2017-07-10T02:29:40.630Z,0
2017-07-10T02:30:20.863Z,0
2017-07-10T02:31:01.299Z,0
2017-07-10T02:31:41.741Z,0
2017-07-10T02:32:22.178Z,0
2017-07-10T02:33:02.218Z,0
2017-07-10T02:33:42.555Z,0
2017-07-10T02:34:22.683Z,0
2017-07-10T02:35:02.918Z,0
2017-07-10T02:35:43.055Z,0
2017-07-10T02:36:23.481Z,0
2017-07-10T02:37:04.021Z,0
2017-07-10T02:37:44.356Z,0
2017-07-10T02:38:24.590Z,0
2017-07-10T02:39:04.824Z,0
2017-07-10T02:39:44.765Z,0
2017-07-10T02:40:24.799Z,0
2017-07-10T02:41:05.036Z,0
2017-07-10T02:41:45.470Z,0
2017-07-10T02:42:25.704Z,0
2017-07-10T02:43:06.041Z,0
2017-07-10T02:43:46.670Z,0
2017-07-10T02:44:26.803Z,0
2017-07-10T02:45:06.833Z,0
2017-07-10T02:45:46.571Z,0
2017-07-10T02:46:28.411Z,4
2017-07-10T02:47:09.245Z,4
2017-07-10T02:47:49.477Z,4
2017-07-10T02:48:30.005Z,4
2017-07-10T02:49:09.939Z,4
2017-07-10T02:49:50.068Z,4
2017-07-10T02:50:30.602Z,0
2017-07-10T02:51:11.328Z,0
2017-07-10T02:51:51.659Z,4
2017-07-10T02:52:32.099Z,4
2017-07-10T02:53:12.431Z,4
2017-07-10T02:53:52.769Z,4
2017-07-10T02:54:33.099Z,4
2017-07-10T02:55:13.628Z,4
2017-07-10T02:55:53.862Z,4
2017-07-10T02:56:35.398Z,4
2017-07-10T02:57:15.945Z,8
2017-07-10T02:57:56.075Z,8
2017-07-10T02:58:36.514Z,8
2017-07-10T02:59:16.853Z,8
2017-07-10T02:59:57.091Z,8
2017-07-10T03:00:37.521Z,8
2017-07-10T03:01:17.951Z,8
2017-07-10T03:01:58.285Z,12
2017-07-10T03:02:38.712Z,12
2017-07-10T03:03:18.855Z,12
2017-07-10T03:03:58.984Z,16
2017-07-10T03:04:39.422Z,12
2017-07-10T03:05:19.860Z,16
2017-07-10T03:06:00.390Z,16
2017-07-10T03:06:40.344Z,16
2017-07-10T03:07:20.873Z,20
2017-07-10T03:08:01.022Z,20
2017-07-10T03:08:41.160Z,24
2017-07-10T03:09:21.292Z,24
2017-07-10T03:10:01.632Z,24
2017-07-10T03:10:41.964Z,24
2017-07-10T03:11:22.009Z,28
2017-07-10T03:12:02.135Z,24
2017-07-10T03:12:42.277Z,24
2017-07-10T03:13:23.912Z,28
2017-07-10T03:14:04.241Z,28
2017-07-10T03:14:44.783Z,32
2017-07-10T03:15:25.123Z,28
2017-07-10T03:16:05.662Z,32
2017-07-10T03:16:45.693Z,36
2017-07-10T03:17:26.229Z,32
2017-07-10T03:18:06.565Z,36
2017-07-10T03:18:46.994Z,36
2017-07-10T03:19:27.330Z,36
2017-07-10T03:20:07.857Z,36
2017-07-10T03:20:48.101Z,40
2017-07-10T03:21:28.333Z,36
2017-07-10T03:22:08.662Z,40
2017-07-10T03:22:48.901Z,40
2017-07-10T03:23:29.369Z,44
2017-07-10T03:24:09.725Z,44
2017-07-10T03:24:50.980Z,44
2017-07-10T03:25:30.937Z,44
2017-07-10T03:26:11.064Z,48
2017-07-10T03:26:52.502Z,48
2017-07-10T03:27:32.931Z,48
2017-07-10T03:28:13.258Z,52
2017-07-10T03:28:53.892Z,52
2017-07-10T03:29:34.131Z,56
2017-07-10T03:30:14.673Z,60
2017-07-10T03:30:54.905Z,60
2017-07-10T03:31:35.536Z,68
2017-07-10T03:32:15.870Z,68
2017-07-10T03:32:56.407Z,72
2017-07-10T03:33:36.740Z,76
2017-07-10T03:34:17.073Z,84
2017-07-10T03:34:57.416Z,88
2017-07-10T03:35:37.643Z,96
2017-07-10T03:36:17.974Z,104
2017-07-10T03:36:58.509Z,116
2017-07-10T03:37:38.643Z,124
2017-07-10T03:38:18.778Z,136
2017-07-10T03:38:59.228Z,148
2017-07-10T03:39:39.555Z,164
2017-07-10T03:40:19.688Z,184
2017-07-10T03:40:59.826Z,204
2017-07-10T03:41:39.959Z,228
2017-07-10T03:42:20.200Z,248
2017-07-10T03:43:00.633Z,272
2017-07-10T03:43:40.975Z,304
2017-07-10T03:44:21.373Z,332
2017-07-10T03:45:01.722Z,372
2017-07-10T03:45:41.962Z,404
2017-07-10T03:46:22.197Z,444
2017-07-10T03:47:02.628Z,484
2017-07-10T03:47:43.074Z,532
2017-07-10T03:48:23.302Z,580
2017-07-10T03:49:03.441Z,632
2017-07-10T03:49:43.575Z,688
2017-07-10T03:50:23.714Z,748
2017-07-10T03:51:04.246Z,812
2017-07-10T03:51:44.190Z,876
2017-07-10T03:52:24.562Z,948
2017-07-10T03:53:04.808Z,1028
2017-07-10T03:53:45.264Z,1100
2017-07-10T03:54:25.204Z,1184
2017-07-10T03:55:05.442Z,1268
2017-07-10T03:55:45.877Z,1356
2017-07-10T03:56:28.198Z,1444
2017-07-10T03:57:08.835Z,1536
2017-07-10T03:57:49.269Z,1624
2017-07-10T03:58:29.216Z,1700
2017-07-10T03:59:09.147Z,1776
2017-07-10T03:59:49.182Z,1852
2017-07-10T04:00:29.719Z,1920
2017-07-10T04:01:10.171Z,1984
2017-07-10T04:01:50.607Z,2044
2017-07-10T04:02:31.155Z,2092
2017-07-10T04:03:11.493Z,2140
2017-07-10T04:03:51.636Z,2176
2017-07-10T04:04:31.877Z,2204
2017-07-10T04:05:12.312Z,2236
2017-07-10T04:05:52.748Z,2260
2017-07-10T04:06:34.826Z,2268
2017-07-10T04:07:15.076Z,2268
2017-07-10T04:07:55.321Z,2268
2017-07-10T04:08:35.663Z,2264
2017-07-10T04:09:16.021Z,2264
2017-07-10T04:09:56.461Z,2268
2017-07-10T04:10:37.096Z,2276
2017-07-10T04:11:17.530Z,2300
2017-07-10T04:11:57.767Z,2328
2017-07-10T04:12:38.204Z,2360
2017-07-10T04:13:18.438Z,2404
2017-07-10T04:13:58.690Z,2448
2017-07-10T04:14:39.429Z,2496
2017-07-10T04:15:19.665Z,2544
2017-07-10T04:16:00.108Z,2588
2017-07-10T04:16:40.254Z,2628
2017-07-10T04:17:20.706Z,2668
2017-07-10T04:18:01.136Z,2716
2017-07-10T04:18:41.475Z,2780
2017-07-10T04:19:21.618Z,2852
2017-07-10T04:20:02.151Z,2936
2017-07-10T04:20:42.687Z,3012
2017-07-10T04:21:23.024Z,3136
2017-07-10T04:22:03.563Z,3244
2017-07-10T04:22:44.409Z,3360
2017-07-10T04:23:24.468Z,3472
2017-07-10T04:24:04.595Z,3572
2017-07-10T04:24:45.043Z,3664
2017-07-10T04:25:25.292Z,3748
2017-07-10T04:26:05.324Z,3816
2017-07-10T04:26:45.282Z,3872
2017-07-10T04:27:25.716Z,3912
2017-07-10T04:28:06.050Z,3936
2017-07-10T04:28:46.482Z,3940
2017-07-10T04:29:26.832Z,3924
2017-07-10T04:30:06.869Z,3896
2017-07-10T04:30:47.313Z,3844
2017-07-10T04:31:27.457Z,3776
2017-07-10T04:32:07.604Z,3720
2017-07-10T04:32:48.334Z,3656
2017-07-10T04:33:28.669Z,3592
2017-07-10T04:34:09.407Z,3532
2017-07-10T04:34:49.745Z,3484
2017-07-10T04:35:30.079Z,3456
2017-07-10T04:36:10.419Z,3448
2017-07-10T04:36:50.955Z,3448
2017-07-10T04:37:31.093Z,3456
2017-07-10T04:38:11.338Z,3480
2017-07-10T04:38:52.073Z,3504
2017-07-10T04:39:33.724Z,3528
2017-07-10T04:40:15.055Z,3568
2017-07-10T04:40:55.301Z,3616
2017-07-10T04:41:35.634Z,3664
2017-07-10T04:42:15.978Z,3704
2017-07-10T04:42:56.215Z,3740
2017-07-10T04:43:36.364Z,3772
2017-07-10T04:44:17.003Z,3804
2017-07-10T04:44:57.547Z,3832
2017-07-10T04:45:37.797Z,3864
2017-07-10T04:46:18.248Z,3884
2017-07-10T04:46:58.491Z,3904
2017-07-10T04:47:39.034Z,3904
2017-07-10T04:48:19.372Z,3892
2017-07-10T04:48:59.919Z,3856
2017-07-10T04:49:40.249Z,3800
2017-07-10T04:50:20.892Z,3732
2017-07-10T04:51:00.925Z,3664
2017-07-10T04:51:40.864Z,3592
2017-07-10T04:52:21.205Z,3520
2017-07-10T04:53:01.649Z,3448
2017-07-10T04:53:42.084Z,3392
2017-07-10T04:54:21.930Z,3340
2017-07-10T04:55:02.390Z,3308
2017-07-10T04:55:42.728Z,3284
2017-07-10T04:56:22.862Z,3276
2017-07-10T04:57:03.299Z,3268
2017-07-10T04:57:43.640Z,3268
2017-07-10T04:58:23.998Z,3276
2017-07-10T04:59:04.539Z,3276
2017-07-10T04:59:44.678Z,3276
2017-07-10T05:00:25.728Z,3284
2017-07-10T05:01:06.370Z,3288
2017-07-10T05:01:46.504Z,3292
2017-07-10T05:02:27.144Z,3300
2017-07-10T05:03:07.781Z,3308
2017-07-10T05:03:48.117Z,3312
2017-07-10T05:04:28.557Z,3320
2017-07-10T05:05:08.689Z,3328
2017-07-10T05:05:49.328Z,3328
2017-07-10T05:06:29.557Z,3320
2017-07-10T05:07:09.897Z,3316
2017-07-10T05:07:50.229Z,3324
2017-07-10T05:08:30.565Z,3336
2017-07-10T05:09:10.606Z,3352
2017-07-10T05:09:50.848Z,3368
2017-07-10T05:10:31.095Z,3380
2017-07-10T05:11:11.635Z,3380
2017-07-10T05:11:51.865Z,3356
2017-07-10T05:12:32.499Z,3316
2017-07-10T05:13:12.443Z,3260
2017-07-10T05:13:52.681Z,3196
2017-07-10T05:14:33.117Z,3128
2017-07-10T05:15:13.162Z,3064
2017-07-10T05:15:53.400Z,3000
2017-07-10T05:16:33.819Z,2952
2017-07-10T05:17:14.061Z,2904
2017-07-10T05:17:57.296Z,2864
2017-07-10T05:18:37.745Z,2828
2017-07-10T05:19:18.481Z,2792
2017-07-10T05:19:58.717Z,2752
2017-07-10T05:20:39.548Z,2728
2017-07-10T05:21:19.990Z,2708
2017-07-10T05:22:00.126Z,2708
2017-07-10T05:22:40.758Z,2708
2017-07-10T05:23:20.803Z,2716
2017-07-10T05:24:01.029Z,2724
2017-07-10T05:24:41.377Z,2740
2017-07-10T05:25:21.717Z,2768
2017-07-10T05:26:02.268Z,2792
2017-07-10T05:26:42.932Z,2824
2017-07-10T05:27:23.169Z,2868
2017-07-10T05:28:03.408Z,2916
2017-07-10T05:28:43.747Z,2968
2017-07-10T05:29:23.787Z,3028
2017-07-10T05:30:03.926Z,3084
2017-07-10T05:30:44.375Z,3148
2017-07-10T05:31:24.711Z,3212
2017-07-10T05:32:04.940Z,3268
2017-07-10T05:32:45.395Z,3332
2017-07-10T05:33:25.725Z,3404
2017-07-10T05:34:06.164Z,3468
2017-07-10T05:34:46.194Z,3524
2017-07-10T05:35:26.328Z,3584
2017-07-10T05:36:06.874Z,3640
2017-07-10T05:36:47.015Z,3676
2017-07-10T05:37:27.455Z,3716
2017-07-10T05:38:07.890Z,3752
2017-07-10T05:38:48.236Z,3780
2017-07-10T05:39:28.493Z,3804
2017-07-10T05:40:08.734Z,3820
2017-07-10T05:40:48.786Z,3848
2017-07-10T05:41:29.407Z,3876
2017-07-10T05:42:09.648Z,3924
2017-07-10T05:42:49.681Z,3984
2017-07-10T05:43:30.122Z,4056
2017-07-10T05:44:09.956Z,4128
2017-07-10T05:44:50.304Z,4212
2017-07-10T05:45:30.738Z,4300
2017-07-10T05:46:11.078Z,4384
2017-07-10T05:46:51.625Z,4464
2017-07-10T05:47:31.963Z,4536
2017-07-10T05:48:12.803Z,4604
2017-07-10T05:48:53.240Z,4656
2017-07-10T05:49:33.484Z,4696
2017-07-10T05:50:13.919Z,4720
2017-07-10T05:50:53.957Z,4732
2017-07-10T05:51:34.203Z,4732
2017-07-10T05:52:14.536Z,4716
2017-07-10T05:52:55.281Z,4708
2017-07-10T05:53:35.612Z,4700
2017-07-10T05:54:15.749Z,4688
2017-07-10T05:54:56.227Z,4688
2017-07-10T05:55:36.773Z,4692
2017-07-10T05:56:16.916Z,4716
2017-07-10T05:56:57.349Z,4724
2017-07-10T05:57:37.488Z,4732
2017-07-10T05:58:17.312Z,4720
2017-07-10T05:58:57.547Z,4720
2017-07-10T05:59:37.983Z,4740
2017-07-10T06:00:17.920Z,4772
2017-07-10T06:00:58.371Z,4836
2017-07-10T06:01:38.905Z,4920
2017-07-10T06:02:19.142Z,5012
2017-07-10T06:02:59.586Z,5136
2017-07-10T06:03:39.729Z,5212
2017-07-10T06:04:20.048Z,5272
2017-07-10T06:05:00.589Z,5344
2017-07-10T06:05:41.053Z,5404
2017-07-10T06:06:21.591Z,5476
2017-07-10T06:07:01.230Z,5556
2017-07-10T06:07:41.624Z,5596
2017-07-10T06:08:21.608Z,5628
2017-07-10T06:09:01.546Z,5660
2017-07-10T06:09:42.075Z,5680
2017-07-10T06:10:22.220Z,5692
2017-07-10T06:11:02.252Z,5672
2017-07-10T06:11:42.698Z,5640
2017-07-10T06:12:23.041Z,5616
2017-07-10T06:13:03.197Z,5544
2017-07-10T06:13:43.533Z,5524
2017-07-10T06:14:24.172Z,5488
2017-07-10T06:15:04.115Z,5352
2017-07-10T06:15:44.357Z,5260
2017-07-10T06:16:24.489Z,5180
2017-07-10T06:17:04.528Z,5088
2017-07-10T06:17:45.272Z,5024
2017-07-10T06:18:25.707Z,4920
2017-07-10T06:19:05.945Z,4812
2017-07-10T06:19:46.496Z,4712
2017-07-10T06:20:26.828Z,4624
2017-07-10T06:21:07.067Z,4656
2017-07-10T06:21:47.101Z,4560
2017-07-10T06:22:27.540Z,4520
2017-07-10T06:23:07.802Z,4616
2017-07-10T06:23:48.433Z,4560
2017-07-10T06:24:28.974Z,4528
2017-07-10T06:25:09.217Z,4500
2017-07-10T06:25:49.649Z,4460
2017-07-10T06:26:30.559Z,4432
2017-07-10T06:27:11.602Z,4384
2017-07-10T06:27:51.752Z,4292
2017-07-10T06:28:31.790Z,4228
2017-07-10T06:29:12.422Z,4172
2017-07-10T06:29:52.655Z,4104
2017-07-10T06:30:33.189Z,4024
2017-07-10T06:31:13.034Z,3956
2017-07-10T06:31:53.266Z,3912
2017-07-10T06:32:33.403Z,3852
2017-07-10T06:33:13.546Z,3772
2017-07-10T06:33:53.889Z,3664
2017-07-10T06:34:34.424Z,3576
2017-07-10T06:35:14.457Z,3540
2017-07-10T06:35:54.692Z,3540
2017-07-10T06:36:34.949Z,3560
2017-07-10T06:37:14.899Z,3636
2017-07-10T06:37:55.135Z,3740
2017-07-10T06:38:35.780Z,3832
2017-07-10T06:39:15.912Z,3940
2017-07-10T06:39:56.353Z,4044
2017-07-10T06:40:36.790Z,4144
2017-07-10T06:41:17.330Z,4268
2017-07-10T06:41:57.568Z,4360
2017-07-10T06:42:37.904Z,4424
2017-07-10T06:43:17.946Z,4512
2017-07-10T06:43:58.077Z,4588
2017-07-10T06:44:38.519Z,4652
2017-07-10T06:45:18.661Z,4708
2017-07-10T06:45:59.101Z,4748
2017-07-10T06:46:39.641Z,4816
2017-07-10T06:47:20.078Z,4864
2017-07-10T06:48:00.427Z,4924
2017-07-10T06:48:40.864Z,5000
2017-07-10T06:49:21.410Z,5112
2017-07-10T06:50:01.840Z,5252
2017-07-10T06:50:42.078Z,5428
2017-07-10T06:51:22.826Z,5600
2017-07-10T06:52:02.960Z,5792
2017-07-10T06:52:43.055Z,5976
2017-07-10T06:53:23.341Z,6160
2017-07-10T06:54:03.782Z,6364
2017-07-10T06:54:44.025Z,6584
2017-07-10T06:55:24.465Z,6832
2017-07-10T06:56:04.906Z,7156
2017-07-10T06:56:45.050Z,7636
2017-07-10T06:57:25.503Z,7996
2017-07-10T06:58:05.836Z,8584
2017-07-10T06:58:46.182Z,9216
2017-07-10T06:59:26.816Z,9852
2017-07-10T07:00:06.655Z,10416
2017-07-10T07:00:47.909Z,10856
2017-07-10T07:01:27.970Z,11188
2017-07-10T07:02:08.015Z,11508
2017-07-10T07:02:48.852Z,11804
2017-07-10T07:03:29.387Z,12088
2017-07-10T07:04:09.629Z,12320
2017-07-10T07:04:49.867Z,12632
2017-07-10T07:05:29.905Z,12912
2017-07-10T07:06:09.951Z,13204
2017-07-10T07:06:50.288Z,13472
2017-07-10T07:07:30.428Z,13604
2017-07-10T07:08:10.874Z,13476
2017-07-10T07:08:51.236Z,13208
2017-07-10T07:09:31.480Z,12840
2017-07-10T07:10:11.921Z,12444
2017-07-10T07:10:52.360Z,12200
2017-07-10T07:11:32.501Z,12004
2017-07-10T07:12:12.839Z,12000
2017-07-10T07:12:53.072Z,12108
2017-07-10T07:13:33.721Z,12072
2017-07-10T07:14:13.972Z,11820
2017-07-10T07:14:54.417Z,11328
2017-07-10T07:15:34.648Z,10576
2017-07-10T07:16:14.795Z,9848
2017-07-10T07:16:54.827Z,9332
2017-07-10T07:17:35.173Z,9020
2017-07-10T07:18:15.707Z,8856
2017-07-10T07:18:56.242Z,8756
2017-07-10T07:19:36.587Z,8668
2017-07-10T07:20:17.021Z,8536
2017-07-10T07:20:57.570Z,8416
2017-07-10T07:21:37.599Z,8376
2017-07-10T07:22:18.039Z,8340
2017-07-10T07:22:58.478Z,8392
2017-07-10T07:23:39.027Z,8472
2017-07-10T07:24:19.858Z,8628
2017-07-10T07:25:00.002Z,8848
2017-07-10T07:25:39.956Z,8996
2017-07-10T07:26:20.486Z,9116
2017-07-10T07:27:00.925Z,9104
2017-07-10T07:27:41.263Z,8964
2017-07-10T07:28:21.503Z,8688
2017-07-10T07:29:01.844Z,8412
2017-07-10T07:29:42.287Z,8212
2017-07-10T07:30:22.028Z,8080
2017-07-10T07:31:02.709Z,8016
2017-07-10T07:31:43.109Z,7952
2017-07-10T07:32:23.748Z,7852
2017-07-10T07:33:03.981Z,7704
2017-07-10T07:33:44.424Z,7516
2017-07-10T07:34:24.963Z,7336
2017-07-10T07:35:05.509Z,7172
2017-07-10T07:35:45.941Z,7040
2017-07-10T07:36:28.109Z,6940
2017-07-10T07:37:08.337Z,6868
2017-07-10T07:37:48.870Z,6800
2017-07-10T07:38:29.115Z,6712
2017-07-10T07:39:09.848Z,6592
2017-07-10T07:39:50.091Z,6420
2017-07-10T07:40:30.027Z,6236
2017-07-10T07:41:10.278Z,6024
2017-07-10T07:41:50.825Z,5836
2017-07-10T07:42:31.103Z,5644
2017-07-10T07:43:11.032Z,5516
2017-07-10T07:43:51.387Z,5456
2017-07-10T07:44:31.941Z,5412
2017-07-10T07:45:11.977Z,5380
2017-07-10T07:45:52.617Z,5356
2017-07-10T07:46:35.676Z,5380
2017-07-10T07:47:16.120Z,5448
2017-07-10T07:47:56.352Z,5528
2017-07-10T07:48:36.482Z,5636
2017-07-10T07:49:17.028Z,5728
2017-07-10T07:49:57.265Z,5796
2017-07-10T07:50:37.613Z,5824
2017-07-10T07:51:18.154Z,5808
2017-07-10T07:51:59.092Z,5764
2017-07-10T07:52:39.633Z,5716
2017-07-10T07:53:19.871Z,5648
2017-07-10T07:54:00.251Z,5588
2017-07-10T07:54:40.492Z,5540
2017-07-10T07:55:20.732Z,5504
2017-07-10T07:56:00.773Z,5484
2017-07-10T07:56:41.021Z,5472
2017-07-10T07:57:21.263Z,5472
2017-07-10T07:58:01.600Z,5456
2017-07-10T07:58:41.736Z,5440
2017-07-10T07:59:22.184Z,5408
2017-07-10T08:00:02.735Z,5352
2017-07-10T08:00:43.074Z,5300
2017-07-10T08:01:23.531Z,5224
2017-07-10T08:02:04.073Z,5172
2017-07-10T08:02:44.231Z,5124
2017-07-10T08:03:24.264Z,5104
2017-07-10T08:04:04.703Z,5108
2017-07-10T08:04:45.150Z,5160
2017-07-10T08:05:25.482Z,5272
2017-07-10T08:06:05.717Z,5448
2017-07-10T08:06:46.361Z,5676
2017-07-10T08:07:26.404Z,5956
2017-07-10T08:08:06.751Z,6248
2017-07-10T08:08:47.202Z,6472
2017-07-10T08:09:27.549Z,6604
2017-07-10T08:10:07.689Z,6700
2017-07-10T08:10:48.342Z,6748
2017-07-10T08:11:28.676Z,6756
2017-07-10T08:12:08.709Z,6736
2017-07-10T08:12:49.750Z,6688
2017-07-10T08:13:29.787Z,6652
2017-07-10T08:14:10.120Z,6624
2017-07-10T08:14:50.255Z,6612
2017-07-10T08:15:30.794Z,6636
2017-07-10T08:16:11.332Z,6680
2017-07-10T08:16:51.471Z,6716
2017-07-10T08:17:31.515Z,6752
2017-07-10T08:18:12.444Z,6816
2017-07-10T08:18:52.579Z,6928
2017-07-10T08:19:33.126Z,7072
2017-07-10T08:20:13.562Z,7192
2017-07-10T08:20:53.796Z,7232
2017-07-10T08:21:34.130Z,7220
2017-07-10T08:22:14.268Z,7128
2017-07-10T08:22:54.314Z,7032
2017-07-10T08:23:34.557Z,6908
2017-07-10T08:24:14.999Z,6772
2017-07-10T08:24:55.135Z,6656
2017-07-10T08:25:35.483Z,6556
2017-07-10T08:26:16.019Z,6416
2017-07-10T08:26:56.568Z,6240
2017-07-10T08:27:36.804Z,6024
2017-07-10T08:28:17.143Z,5816
2017-07-10T08:28:57.402Z,5620
2017-07-10T08:29:37.838Z,5432
2017-07-10T08:30:17.980Z,5276
2017-07-10T08:30:58.219Z,5152
2017-07-10T08:31:38.382Z,5060
2017-07-10T08:32:18.919Z,5008
2017-07-10T08:32:59.256Z,4984
2017-07-10T08:33:39.591Z,4956
2017-07-10T08:34:19.997Z,4964
2017-07-10T08:35:00.235Z,4968
2017-07-10T08:35:40.575Z,4980
2017-07-10T08:36:21.312Z,5016
2017-07-10T08:37:01.344Z,5052
2017-07-10T08:37:41.887Z,5072
2017-07-10T08:38:22.422Z,5084
2017-07-10T08:39:03.064Z,5072
2017-07-10T08:39:43.302Z,5048
2017-07-10T08:40:23.644Z,5016
2017-07-10T08:41:03.889Z,4960
2017-07-10T08:41:44.629Z,4896
2017-07-10T08:42:25.173Z,4816
2017-07-10T08:43:05.821Z,4740
2017-07-10T08:43:46.164Z,4672
2017-07-10T08:44:26.505Z,4608
2017-07-10T08:45:06.868Z,4580
2017-07-10T08:45:47.491Z,4592
2017-07-10T08:46:27.648Z,4660
2017-07-10T08:47:07.919Z,4784
2017-07-10T08:47:48.357Z,4960
2017-07-10T08:48:28.708Z,5192
2017-07-10T08:49:08.852Z,5416
2017-07-10T08:49:49.388Z,5604
2017-07-10T08:50:29.835Z,5776
2017-07-10T08:51:10.363Z,5912
2017-07-10T08:51:50.819Z,5996
2017-07-10T08:52:31.159Z,6060
2017-07-10T08:53:11.697Z,6116
2017-07-10T08:53:52.237Z,6188
2017-07-10T08:54:32.779Z,6280
2017-07-10T08:55:13.114Z,6408
2017-07-10T08:55:53.555Z,6552
2017-07-10T08:56:34.002Z,6712
2017-07-10T08:57:14.436Z,6888
2017-07-10T08:57:54.671Z,7048
2017-07-10T08:58:34.817Z,7184
2017-07-10T08:59:15.053Z,7280
2017-07-10T08:59:55.673Z,7324
2017-07-10T09:00:36.103Z,7356
2017-07-10T09:01:16.352Z,7368
2017-07-10T09:01:57.086Z,7444
2017-07-10T09:02:37.430Z,7620
2017-07-10T09:03:17.775Z,7832
2017-07-10T09:03:58.063Z,8044
2017-07-10T09:04:38.204Z,8256
2017-07-10T09:05:18.588Z,8452
2017-07-10T09:05:59.175Z,8684
2017-07-10T09:06:39.415Z,8940
2017-07-10T09:07:19.851Z,9212
2017-07-10T09:08:00.209Z,9552
2017-07-10T09:08:40.849Z,9932
2017-07-10T09:09:21.102Z,10356
2017-07-10T09:10:01.349Z,10720
2017-07-10T09:10:41.211Z,11016
2017-07-10T09:11:21.352Z,11264
2017-07-10T09:12:02.029Z,11520
2017-07-10T09:12:43.182Z,11796
2017-07-10T09:13:23.629Z,12136
2017-07-10T09:14:04.193Z,12568
2017-07-10T09:14:44.485Z,13056
2017-07-10T09:15:24.905Z,13644
2017-07-10T09:16:05.684Z,14268
2017-07-10T09:16:45.981Z,14880
2017-07-10T09:17:26.816Z,15504